sensor_id;sensor_type;location;lat;lon;timestamp;P1;durP1;ratioP1;P2;durP2;ratioP2
58528;SDS011;44322;52.968;5.816;2024-03-17T00:01:01;7.88;;;5.00;;
58528;SDS011;44322;52.968;5.816;2024-03-17T00:03:27;8.60;;;5.07;;
58528;SDS011;44322;52.968;5.816;2024-03-17T00:06:00;6.78;;;4.25;;
58528;SDS011;44322;52.968;5.816;2024-03-17T00:08:26;7.43;;;4.25;;
58528;SDS011;44322;52.968;5.816;2024-03-17T00:10:52;7.05;;;3.75;;
58528;SDS011;44322;52.968;5.816;2024-03-17T00:13:21;6.43;;;3.75;;
58528;SDS011;44322;52.968;5.816;2024-03-17T00:15:50;6.63;;;3.50;;
58528;SDS011;44322;52.968;5.816;2024-03-17T00:18:16;6.82;;;3.38;;
58528;SDS011;44322;52.968;5.816;2024-03-17T00:20:42;5.55;;;3.35;;
58528;SDS011;44322;52.968;5.816;2024-03-17T00:23:08;5.93;;;3.55;;
58528;SDS011;44322;52.968;5.816;2024-03-17T00:25:37;7.40;;;3.67;;
58528;SDS011;44322;52.968;5.816;2024-03-17T00:28:03;5.97;;;3.13;;
58528;SDS011;44322;52.968;5.816;2024-03-17T00:30:28;5.72;;;3.47;;
58528;SDS011;44322;52.968;5.816;2024-03-17T00:32:54;5.28;;;3.20;;
58528;SDS011;44322;52.968;5.816;2024-03-17T00:35:20;5.43;;;2.90;;
58528;SDS011;44322;52.968;5.816;2024-03-17T00:37:49;5.85;;;3.20;;
58528;SDS011;44322;52.968;5.816;2024-03-17T00:40:15;6.78;;;3.10;;
58528;SDS011;44322;52.968;5.816;2024-03-17T00:42:42;6.72;;;2.97;;
58528;SDS011;44322;52.968;5.816;2024-03-17T00:45:08;5.97;;;3.10;;
58528;SDS011;44322;52.968;5.816;2024-03-17T00:47:35;6.10;;;2.95;;
58528;SDS011;44322;52.968;5.816;2024-03-17T00:50:01;6.00;;;3.10;;
58528;SDS011;44322;52.968;5.816;2024-03-17T00:52:28;7.50;;;3.55;;
58528;SDS011;44322;52.968;5.816;2024-03-17T00:54:53;6.45;;;3.15;;
58528;SDS011;44322;52.968;5.816;2024-03-17T00:57:19;5.05;;;2.88;;
58528;SDS011;44322;52.968;5.816;2024-03-17T00:59:45;6.57;;;3.25;;
58528;SDS011;44322;52.968;5.816;2024-03-17T01:02:11;5.22;;;3.03;;
58528;SDS011;44322;52.968;5.816;2024-03-17T01:04:39;6.20;;;3.00;;
58528;SDS011;44322;52.968;5.816;2024-03-17T01:07:05;6.20;;;3.13;;
58528;SDS011;44322;52.968;5.816;2024-03-17T01:09:31;6.88;;;3.25;;
58528;SDS011;44322;52.968;5.816;2024-03-17T01:11:57;5.75;;;3.15;;
58528;SDS011;44322;52.968;5.816;2024-03-17T01:14:22;4.90;;;2.80;;
58528;SDS011;44322;52.968;5.816;2024-03-17T01:16:50;4.47;;;2.97;;
58528;SDS011;44322;52.968;5.816;2024-03-17T01:19:16;5.93;;;2.85;;
58528;SDS011;44322;52.968;5.816;2024-03-17T01:21:41;7.40;;;3.40;;
58528;SDS011;44322;52.968;5.816;2024-03-17T01:24:07;7.47;;;3.35;;
58528;SDS011;44322;52.968;5.816;2024-03-17T01:26:32;6.95;;;3.33;;
58528;SDS011;44322;52.968;5.816;2024-03-17T01:28:58;5.82;;;3.10;;
58528;SDS011;44322;52.968;5.816;2024-03-17T01:31:24;7.35;;;3.78;;
58528;SDS011;44322;52.968;5.816;2024-03-17T01:33:50;7.20;;;4.07;;
58528;SDS011;44322;52.968;5.816;2024-03-17T01:36:15;6.32;;;3.50;;
58528;SDS011;44322;52.968;5.816;2024-03-17T01:38:41;5.47;;;3.20;;
58528;SDS011;44322;52.968;5.816;2024-03-17T01:41:07;5.95;;;3.58;;
58528;SDS011;44322;52.968;5.816;2024-03-17T01:43:32;6.68;;;3.55;;
58528;SDS011;44322;52.968;5.816;2024-03-17T01:45:58;6.85;;;3.42;;
58528;SDS011;44322;52.968;5.816;2024-03-17T01:48:24;6.22;;;3.75;;
58528;SDS011;44322;52.968;5.816;2024-03-17T01:50:51;6.68;;;3.30;;
58528;SDS011;44322;52.968;5.816;2024-03-17T01:53:18;6.43;;;4.00;;
58528;SDS011;44322;52.968;5.816;2024-03-17T01:55:46;8.43;;;5.00;;
58528;SDS011;44322;52.968;5.816;2024-03-17T01:58:12;7.25;;;4.05;;
58528;SDS011;44322;52.968;5.816;2024-03-17T02:00:38;8.60;;;4.32;;
58528;SDS011;44322;52.968;5.816;2024-03-17T02:03:08;8.60;;;3.92;;
58528;SDS011;44322;52.968;5.816;2024-03-17T02:05:35;8.32;;;4.43;;
58528;SDS011;44322;52.968;5.816;2024-03-17T02:08:03;9.13;;;4.97;;
58528;SDS011;44322;52.968;5.816;2024-03-17T02:10:29;7.30;;;4.07;;
58528;SDS011;44322;52.968;5.816;2024-03-17T02:12:55;8.57;;;4.50;;
58528;SDS011;44322;52.968;5.816;2024-03-17T02:15:21;9.07;;;3.97;;
58528;SDS011;44322;52.968;5.816;2024-03-17T02:17:46;8.73;;;4.55;;
58528;SDS011;44322;52.968;5.816;2024-03-17T02:20:12;9.13;;;4.95;;
58528;SDS011;44322;52.968;5.816;2024-03-17T02:22:39;9.95;;;4.70;;
58528;SDS011;44322;52.968;5.816;2024-03-17T02:25:05;8.63;;;4.65;;
58528;SDS011;44322;52.968;5.816;2024-03-17T02:30:04;10.80;;;4.97;;
58528;SDS011;44322;52.968;5.816;2024-03-17T02:32:34;9.25;;;4.85;;
58528;SDS011;44322;52.968;5.816;2024-03-17T02:34:59;7.97;;;4.97;;
58528;SDS011;44322;52.968;5.816;2024-03-17T02:37:25;10.43;;;5.88;;
58528;SDS011;44322;52.968;5.816;2024-03-17T02:39:51;7.57;;;5.20;;
58528;SDS011;44322;52.968;5.816;2024-03-17T02:42:18;11.00;;;5.20;;
58528;SDS011;44322;52.968;5.816;2024-03-17T02:44:44;9.35;;;5.03;;
58528;SDS011;44322;52.968;5.816;2024-03-17T02:47:10;7.90;;;5.03;;
58528;SDS011;44322;52.968;5.816;2024-03-17T02:49:39;8.63;;;5.22;;
58528;SDS011;44322;52.968;5.816;2024-03-17T02:52:08;10.63;;;5.65;;
58528;SDS011;44322;52.968;5.816;2024-03-17T02:54:35;9.63;;;4.97;;
58528;SDS011;44322;52.968;5.816;2024-03-17T02:57:05;8.20;;;4.82;;
58528;SDS011;44322;52.968;5.816;2024-03-17T02:59:32;11.88;;;5.10;;
58528;SDS011;44322;52.968;5.816;2024-03-17T03:01:58;9.52;;;5.50;;
58528;SDS011;44322;52.968;5.816;2024-03-17T03:04:25;7.82;;;4.90;;
58528;SDS011;44322;52.968;5.816;2024-03-17T03:06:52;6.97;;;4.53;;
58528;SDS011;44322;52.968;5.816;2024-03-17T03:09:17;9.27;;;4.50;;
58528;SDS011;44322;52.968;5.816;2024-03-17T03:11:51;7.28;;;4.07;;
58528;SDS011;44322;52.968;5.816;2024-03-17T03:14:17;11.68;;;4.28;;
58528;SDS011;44322;52.968;5.816;2024-03-17T03:16:44;6.35;;;3.90;;
58528;SDS011;44322;52.968;5.816;2024-03-17T03:19:10;8.32;;;4.40;;
58528;SDS011;44322;52.968;5.816;2024-03-17T03:21:35;8.15;;;4.15;;
58528;SDS011;44322;52.968;5.816;2024-03-17T03:24:01;8.52;;;4.00;;
58528;SDS011;44322;52.968;5.816;2024-03-17T03:26:27;8.27;;;4.13;;
58528;SDS011;44322;52.968;5.816;2024-03-17T03:28:53;5.55;;;4.05;;
58528;SDS011;44322;52.968;5.816;2024-03-17T03:31:20;7.70;;;4.03;;
58528;SDS011;44322;52.968;5.816;2024-03-17T03:33:47;8.45;;;4.60;;
58528;SDS011;44322;52.968;5.816;2024-03-17T03:36:13;9.68;;;4.40;;
58528;SDS011;44322;52.968;5.816;2024-03-17T03:38:39;8.00;;;4.50;;
58528;SDS011;44322;52.968;5.816;2024-03-17T03:41:14;7.85;;;4.50;;
58528;SDS011;44322;52.968;5.816;2024-03-17T03:43:40;8.60;;;4.38;;
58528;SDS011;44322;52.968;5.816;2024-03-17T03:46:07;11.15;;;4.63;;
58528;SDS011;44322;52.968;5.816;2024-03-17T03:48:33;9.27;;;5.05;;
58528;SDS011;44322;52.968;5.816;2024-03-17T03:51:06;8.60;;;4.50;;
58528;SDS011;44322;52.968;5.816;2024-03-17T03:53:32;10.27;;;4.65;;
58528;SDS011;44322;52.968;5.816;2024-03-17T03:55:59;8.13;;;4.85;;
58528;SDS011;44322;52.968;5.816;2024-03-17T03:58:27;9.90;;;4.53;;
58528;SDS011;44322;52.968;5.816;2024-03-17T04:00:54;12.43;;;4.60;;
58528;SDS011;44322;52.968;5.816;2024-03-17T04:03:20;12.15;;;4.75;;
58528;SDS011;44322;52.968;5.816;2024-03-17T04:05:46;10.57;;;4.22;;
58528;SDS011;44322;52.968;5.816;2024-03-17T04:08:11;9.30;;;4.40;;
58528;SDS011;44322;52.968;5.816;2024-03-17T04:10:37;10.10;;;4.45;;
58528;SDS011;44322;52.968;5.816;2024-03-17T04:13:03;9.55;;;5.30;;
58528;SDS011;44322;52.968;5.816;2024-03-17T04:15:28;8.57;;;5.10;;
58528;SDS011;44322;52.968;5.816;2024-03-17T04:17:54;8.32;;;5.32;;
58528;SDS011;44322;52.968;5.816;2024-03-17T04:20:19;11.20;;;5.38;;
58528;SDS011;44322;52.968;5.816;2024-03-17T04:22:46;11.35;;;6.07;;
58528;SDS011;44322;52.968;5.816;2024-03-17T04:25:13;13.70;;;5.90;;
58528;SDS011;44322;52.968;5.816;2024-03-17T04:27:40;9.32;;;5.38;;
58528;SDS011;44322;52.968;5.816;2024-03-17T04:30:06;12.52;;;5.75;;
58528;SDS011;44322;52.968;5.816;2024-03-17T04:32:32;9.93;;;5.70;;
58528;SDS011;44322;52.968;5.816;2024-03-17T04:34:58;12.63;;;5.65;;
58528;SDS011;44322;52.968;5.816;2024-03-17T04:37:24;9.32;;;5.28;;
58528;SDS011;44322;52.968;5.816;2024-03-17T04:39:50;9.65;;;5.70;;
58528;SDS011;44322;52.968;5.816;2024-03-17T04:42:16;9.93;;;5.57;;
58528;SDS011;44322;52.968;5.816;2024-03-17T04:44:46;12.13;;;5.32;;
58528;SDS011;44322;52.968;5.816;2024-03-17T04:47:11;11.52;;;5.10;;
58528;SDS011;44322;52.968;5.816;2024-03-17T04:52:08;10.40;;;4.93;;
58528;SDS011;44322;52.968;5.816;2024-03-17T04:54:34;9.73;;;4.68;;
58528;SDS011;44322;52.968;5.816;2024-03-17T04:57:00;8.50;;;4.10;;
58528;SDS011;44322;52.968;5.816;2024-03-17T04:59:26;6.22;;;4.47;;
58528;SDS011;44322;52.968;5.816;2024-03-17T05:01:55;10.00;;;4.47;;
58528;SDS011;44322;52.968;5.816;2024-03-17T05:04:21;10.35;;;4.18;;
58528;SDS011;44322;52.968;5.816;2024-03-17T05:06:48;11.23;;;4.45;;
58528;SDS011;44322;52.968;5.816;2024-03-17T05:09:18;11.10;;;3.83;;
58528;SDS011;44322;52.968;5.816;2024-03-17T05:11:44;11.45;;;4.18;;
58528;SDS011;44322;52.968;5.816;2024-03-17T05:14:10;7.63;;;4.03;;
58528;SDS011;44322;52.968;5.816;2024-03-17T05:16:36;11.25;;;3.67;;
58528;SDS011;44322;52.968;5.816;2024-03-17T05:19:02;10.30;;;4.53;;
58528;SDS011;44322;52.968;5.816;2024-03-17T05:21:28;7.25;;;3.47;;
58528;SDS011;44322;52.968;5.816;2024-03-17T05:23:57;9.65;;;3.78;;
58528;SDS011;44322;52.968;5.816;2024-03-17T05:26:23;7.72;;;3.80;;
58528;SDS011;44322;52.968;5.816;2024-03-17T05:28:50;11.85;;;4.03;;
58528;SDS011;44322;52.968;5.816;2024-03-17T05:31:15;9.07;;;3.80;;
58528;SDS011;44322;52.968;5.816;2024-03-17T05:33:43;6.78;;;3.88;;
58528;SDS011;44322;52.968;5.816;2024-03-17T05:36:10;10.68;;;4.55;;
58528;SDS011;44322;52.968;5.816;2024-03-17T05:38:36;9.85;;;3.83;;
58528;SDS011;44322;52.968;5.816;2024-03-17T05:41:05;7.07;;;3.90;;
58528;SDS011;44322;52.968;5.816;2024-03-17T05:43:33;9.70;;;4.32;;
58528;SDS011;44322;52.968;5.816;2024-03-17T05:46:19;10.02;;;4.18;;
58528;SDS011;44322;52.968;5.816;2024-03-17T05:48:48;9.70;;;4.40;;
58528;SDS011;44322;52.968;5.816;2024-03-17T05:51:17;8.95;;;4.50;;
58528;SDS011;44322;52.968;5.816;2024-03-17T05:53:45;9.30;;;4.50;;
58528;SDS011;44322;52.968;5.816;2024-03-17T05:56:15;8.68;;;4.07;;
58528;SDS011;44322;52.968;5.816;2024-03-17T05:58:43;8.73;;;3.85;;
58528;SDS011;44322;52.968;5.816;2024-03-17T06:01:10;9.13;;;3.88;;
58528;SDS011;44322;52.968;5.816;2024-03-17T06:03:41;9.93;;;4.05;;
58528;SDS011;44322;52.968;5.816;2024-03-17T06:06:12;7.65;;;4.20;;
58528;SDS011;44322;52.968;5.816;2024-03-17T06:08:41;8.20;;;3.97;;
58528;SDS011;44322;52.968;5.816;2024-03-17T06:11:07;9.00;;;4.68;;
58528;SDS011;44322;52.968;5.816;2024-03-17T06:13:35;11.48;;;4.50;;
58528;SDS011;44322;52.968;5.816;2024-03-17T06:16:02;8.80;;;4.77;;
58528;SDS011;44322;52.968;5.816;2024-03-17T06:18:40;8.32;;;4.45;;
58528;SDS011;44322;52.968;5.816;2024-03-17T06:21:22;10.30;;;5.00;;
58528;SDS011;44322;52.968;5.816;2024-03-17T06:23:51;8.70;;;4.60;;
58528;SDS011;44322;52.968;5.816;2024-03-17T06:26:20;9.32;;;4.72;;
58528;SDS011;44322;52.968;5.816;2024-03-17T06:28:54;10.38;;;5.18;;
58528;SDS011;44322;52.968;5.816;2024-03-17T06:31:25;9.50;;;5.90;;
58528;SDS011;44322;52.968;5.816;2024-03-17T06:33:58;11.70;;;6.28;;
58528;SDS011;44322;52.968;5.816;2024-03-17T06:36:30;14.68;;;6.35;;
58528;SDS011;44322;52.968;5.816;2024-03-17T06:38:59;14.88;;;6.03;;
58528;SDS011;44322;52.968;5.816;2024-03-17T06:41:26;16.15;;;6.68;;
58528;SDS011;44322;52.968;5.816;2024-03-17T06:43:52;11.68;;;6.28;;
58528;SDS011;44322;52.968;5.816;2024-03-17T06:46:19;13.00;;;6.70;;
58528;SDS011;44322;52.968;5.816;2024-03-17T06:48:46;10.68;;;6.40;;
58528;SDS011;44322;52.968;5.816;2024-03-17T06:51:15;11.18;;;6.43;;
58528;SDS011;44322;52.968;5.816;2024-03-17T06:53:44;14.65;;;6.80;;
58528;SDS011;44322;52.968;5.816;2024-03-17T06:56:11;10.95;;;6.60;;
58528;SDS011;44322;52.968;5.816;2024-03-17T06:58:40;12.25;;;7.18;;
58528;SDS011;44322;52.968;5.816;2024-03-17T07:01:07;11.13;;;6.57;;
58528;SDS011;44322;52.968;5.816;2024-03-17T07:03:43;14.20;;;7.45;;
58528;SDS011;44322;52.968;5.816;2024-03-17T07:06:09;13.27;;;7.15;;
58528;SDS011;44322;52.968;5.816;2024-03-17T07:08:35;11.70;;;8.32;;
58528;SDS011;44322;52.968;5.816;2024-03-17T07:11:04;12.73;;;8.60;;
58528;SDS011;44322;52.968;5.816;2024-03-17T07:13:35;12.93;;;7.97;;
58528;SDS011;44322;52.968;5.816;2024-03-17T07:16:02;13.18;;;8.45;;
58528;SDS011;44322;52.968;5.816;2024-03-17T07:18:33;11.73;;;8.10;;
58528;SDS011;44322;52.968;5.816;2024-03-17T07:21:02;14.48;;;8.88;;
58528;SDS011;44322;52.968;5.816;2024-03-17T07:23:35;12.70;;;8.70;;
58528;SDS011;44322;52.968;5.816;2024-03-17T07:26:02;11.57;;;7.90;;
58528;SDS011;44322;52.968;5.816;2024-03-17T07:28:30;15.77;;;8.27;;
58528;SDS011;44322;52.968;5.816;2024-03-17T07:30:57;13.23;;;8.55;;
58528;SDS011;44322;52.968;5.816;2024-03-17T07:33:26;11.48;;;8.63;;
58528;SDS011;44322;52.968;5.816;2024-03-17T07:35:56;13.43;;;8.55;;
58528;SDS011;44322;52.968;5.816;2024-03-17T07:38:29;13.25;;;8.25;;
58528;SDS011;44322;52.968;5.816;2024-03-17T07:41:00;11.75;;;8.20;;
58528;SDS011;44322;52.968;5.816;2024-03-17T07:43:27;14.75;;;9.38;;
58528;SDS011;44322;52.968;5.816;2024-03-17T07:45:58;12.53;;;9.00;;
58528;SDS011;44322;52.968;5.816;2024-03-17T07:48:26;11.75;;;8.52;;
58528;SDS011;44322;52.968;5.816;2024-03-17T07:50:56;12.23;;;9.10;;
58528;SDS011;44322;52.968;5.816;2024-03-17T07:53:37;13.25;;;9.25;;
58528;SDS011;44322;52.968;5.816;2024-03-17T07:56:10;13.38;;;8.82;;
58528;SDS011;44322;52.968;5.816;2024-03-17T07:58:41;12.48;;;9.50;;
58528;SDS011;44322;52.968;5.816;2024-03-17T08:01:10;11.48;;;9.52;;
58528;SDS011;44322;52.968;5.816;2024-03-17T08:03:39;12.23;;;9.02;;
58528;SDS011;44322;52.968;5.816;2024-03-17T08:06:12;15.52;;;10.10;;
58528;SDS011;44322;52.968;5.816;2024-03-17T08:08:39;14.43;;;10.02;;
58528;SDS011;44322;52.968;5.816;2024-03-17T08:11:07;14.55;;;9.93;;
58528;SDS011;44322;52.968;5.816;2024-03-17T08:13:37;15.30;;;10.23;;
58528;SDS011;44322;52.968;5.816;2024-03-17T08:16:06;16.13;;;11.00;;
58528;SDS011;44322;52.968;5.816;2024-03-17T08:18:39;15.25;;;10.88;;
58528;SDS011;44322;52.968;5.816;2024-03-17T08:21:06;15.23;;;11.48;;
58528;SDS011;44322;52.968;5.816;2024-03-17T08:23:33;17.70;;;12.15;;
58528;SDS011;44322;52.968;5.816;2024-03-17T08:26:07;18.70;;;12.27;;
58528;SDS011;44322;52.968;5.816;2024-03-17T08:28:33;17.63;;;11.35;;
58528;SDS011;44322;52.968;5.816;2024-03-17T08:31:05;15.60;;;11.70;;
58528;SDS011;44322;52.968;5.816;2024-03-17T08:33:46;16.25;;;10.95;;
58528;SDS011;44322;52.968;5.816;2024-03-17T08:36:19;14.85;;;11.32;;
58528;SDS011;44322;52.968;5.816;2024-03-17T08:38:46;18.25;;;11.43;;
58528;SDS011;44322;52.968;5.816;2024-03-17T08:41:35;16.80;;;12.00;;
58528;SDS011;44322;52.968;5.816;2024-03-17T08:44:10;15.32;;;11.48;;
58528;SDS011;44322;52.968;5.816;2024-03-17T08:46:36;14.57;;;11.40;;
58528;SDS011;44322;52.968;5.816;2024-03-17T08:49:01;14.68;;;11.20;;
58528;SDS011;44322;52.968;5.816;2024-03-17T08:51:27;13.55;;;11.40;;
58528;SDS011;44322;52.968;5.816;2024-03-17T08:53:53;17.77;;;11.40;;
58528;SDS011;44322;52.968;5.816;2024-03-17T08:56:25;15.20;;;11.73;;
58528;SDS011;44322;52.968;5.816;2024-03-17T08:59:13;14.63;;;11.95;;
58528;SDS011;44322;52.968;5.816;2024-03-17T09:01:39;16.08;;;11.48;;
58528;SDS011;44322;52.968;5.816;2024-03-17T09:04:05;16.58;;;11.43;;
58528;SDS011;44322;52.968;5.816;2024-03-17T09:06:31;17.38;;;12.18;;
58528;SDS011;44322;52.968;5.816;2024-03-17T09:09:01;15.23;;;11.20;;
58528;SDS011;44322;52.968;5.816;2024-03-17T09:11:32;15.02;;;11.20;;
58528;SDS011;44322;52.968;5.816;2024-03-17T09:14:10;16.23;;;11.80;;
58528;SDS011;44322;52.968;5.816;2024-03-17T09:16:36;14.85;;;11.27;;
58528;SDS011;44322;52.968;5.816;2024-03-17T09:19:02;14.57;;;12.13;;
58528;SDS011;44322;52.968;5.816;2024-03-17T09:21:28;15.77;;;11.35;;
58528;SDS011;44322;52.968;5.816;2024-03-17T09:23:53;13.98;;;10.95;;
58528;SDS011;44322;52.968;5.816;2024-03-17T09:26:19;14.38;;;11.02;;
58528;SDS011;44322;52.968;5.816;2024-03-17T09:28:45;17.00;;;13.15;;
58528;SDS011;44322;52.968;5.816;2024-03-17T09:31:11;14.32;;;11.18;;
58528;SDS011;44322;52.968;5.816;2024-03-17T09:33:42;12.98;;;11.50;;
58528;SDS011;44322;52.968;5.816;2024-03-17T09:36:08;14.90;;;12.02;;
58528;SDS011;44322;52.968;5.816;2024-03-17T09:38:39;14.75;;;11.52;;
58528;SDS011;44322;52.968;5.816;2024-03-17T09:41:06;15.77;;;12.18;;
58528;SDS011;44322;52.968;5.816;2024-03-17T09:43:33;14.68;;;11.38;;
58528;SDS011;44322;52.968;5.816;2024-03-17T09:50:19;15.45;;;11.98;;
58528;SDS011;44322;52.968;5.816;2024-03-17T09:52:44;15.85;;;11.55;;
58528;SDS011;44322;52.968;5.816;2024-03-17T09:55:16;13.70;;;12.00;;
58528;SDS011;44322;52.968;5.816;2024-03-17T09:57:43;16.10;;;12.23;;
58528;SDS011;44322;52.968;5.816;2024-03-17T10:00:10;12.98;;;11.18;;
58528;SDS011;44322;52.968;5.816;2024-03-17T10:02:43;14.68;;;11.00;;
58528;SDS011;44322;52.968;5.816;2024-03-17T10:05:23;14.98;;;11.23;;
58528;SDS011;44322;52.968;5.816;2024-03-17T10:07:50;16.27;;;11.48;;
58528;SDS011;44322;52.968;5.816;2024-03-17T10:10:17;14.77;;;11.70;;
58528;SDS011;44322;52.968;5.816;2024-03-17T10:12:44;16.00;;;11.35;;
58528;SDS011;44322;52.968;5.816;2024-03-17T10:15:14;14.35;;;11.45;;
58528;SDS011;44322;52.968;5.816;2024-03-17T10:17:39;15.50;;;11.20;;
58528;SDS011;44322;52.968;5.816;2024-03-17T10:20:19;14.48;;;10.75;;
58528;SDS011;44322;52.968;5.816;2024-03-17T10:23:02;14.63;;;10.30;;
58528;SDS011;44322;52.968;5.816;2024-03-17T10:25:34;11.90;;;10.45;;
58528;SDS011;44322;52.968;5.816;2024-03-17T10:28:01;12.63;;;10.70;;
58528;SDS011;44322;52.968;5.816;2024-03-17T10:30:27;13.85;;;11.13;;
58528;SDS011;44322;52.968;5.816;2024-03-17T10:32:55;15.05;;;11.70;;
58528;SDS011;44322;52.968;5.816;2024-03-17T10:35:32;13.48;;;10.43;;
58528;SDS011;44322;52.968;5.816;2024-03-17T10:38:00;15.10;;;10.55;;
58528;SDS011;44322;52.968;5.816;2024-03-17T10:40:27;13.13;;;9.97;;
58528;SDS011;44322;52.968;5.816;2024-03-17T10:42:55;11.60;;;9.88;;
58528;SDS011;44322;52.968;5.816;2024-03-17T10:45:21;12.60;;;10.07;;
58528;SDS011;44322;52.968;5.816;2024-03-17T10:47:50;12.40;;;10.10;;
58528;SDS011;44322;52.968;5.816;2024-03-17T10:50:18;15.02;;;9.73;;
58528;SDS011;44322;52.968;5.816;2024-03-17T10:52:48;10.50;;;9.13;;
58528;SDS011;44322;52.968;5.816;2024-03-17T10:55:21;10.27;;;9.27;;
58528;SDS011;44322;52.968;5.816;2024-03-17T10:57:49;13.40;;;9.70;;
58528;SDS011;44322;52.968;5.816;2024-03-17T11:00:17;12.02;;;9.13;;
58528;SDS011;44322;52.968;5.816;2024-03-17T11:02:44;11.38;;;9.75;;
58528;SDS011;44322;52.968;5.816;2024-03-17T11:05:13;11.15;;;9.18;;
58528;SDS011;44322;52.968;5.816;2024-03-17T11:07:41;9.75;;;8.68;;
58528;SDS011;44322;52.968;5.816;2024-03-17T11:10:23;10.00;;;8.40;;
58528;SDS011;44322;52.968;5.816;2024-03-17T11:12:50;10.60;;;9.02;;
58528;SDS011;44322;52.968;5.816;2024-03-17T11:17:46;11.02;;;8.23;;
58528;SDS011;44322;52.968;5.816;2024-03-17T11:20:15;8.45;;;7.55;;
58528;SDS011;44322;52.968;5.816;2024-03-17T11:22:48;10.23;;;8.38;;
58528;SDS011;44322;52.968;5.816;2024-03-17T11:28:06;9.60;;;7.35;;
58528;SDS011;44322;52.968;5.816;2024-03-17T11:51:49;8.02;;;6.95;;
58528;SDS011;44322;52.968;5.816;2024-03-17T11:54:17;8.82;;;7.13;;
58528;SDS011;44322;52.968;5.816;2024-03-17T11:56:49;8.27;;;6.88;;
58528;SDS011;44322;52.968;5.816;2024-03-17T11:59:16;8.43;;;7.63;;
58528;SDS011;44322;52.968;5.816;2024-03-17T12:01:46;8.40;;;7.60;;
58528;SDS011;44322;52.968;5.816;2024-03-17T12:04:21;9.45;;;8.13;;
58528;SDS011;44322;52.968;5.816;2024-03-17T12:06:48;9.73;;;8.40;;
58528;SDS011;44322;52.968;5.816;2024-03-17T12:09:27;9.55;;;8.55;;
58528;SDS011;44322;52.968;5.816;2024-03-17T12:12:02;8.95;;;8.05;;
58528;SDS011;44322;52.968;5.816;2024-03-17T12:14:35;9.95;;;8.68;;
58528;SDS011;44322;52.968;5.816;2024-03-17T12:17:02;9.93;;;8.57;;
58528;SDS011;44322;52.968;5.816;2024-03-17T12:19:29;11.52;;;8.90;;
58528;SDS011;44322;52.968;5.816;2024-03-17T12:21:56;10.88;;;9.18;;
58528;SDS011;44322;52.968;5.816;2024-03-17T12:24:23;9.40;;;8.40;;
58528;SDS011;44322;52.968;5.816;2024-03-17T12:26:50;10.98;;;8.73;;
58528;SDS011;44322;52.968;5.816;2024-03-17T12:29:27;10.65;;;9.07;;
58528;SDS011;44322;52.968;5.816;2024-03-17T12:31:55;11.45;;;8.73;;
58528;SDS011;44322;52.968;5.816;2024-03-17T12:34:22;10.63;;;9.25;;
58528;SDS011;44322;52.968;5.816;2024-03-17T12:36:49;11.50;;;8.95;;
58528;SDS011;44322;52.968;5.816;2024-03-17T12:39:19;9.38;;;8.40;;
58528;SDS011;44322;52.968;5.816;2024-03-17T12:41:54;12.05;;;8.80;;
58528;SDS011;44322;52.968;5.816;2024-03-17T12:44:36;9.75;;;8.75;;
58528;SDS011;44322;52.968;5.816;2024-03-17T12:47:03;10.45;;;8.27;;
58528;SDS011;44322;52.968;5.816;2024-03-17T12:49:30;9.57;;;8.57;;
58528;SDS011;44322;52.968;5.816;2024-03-17T12:51:56;10.93;;;8.37;;
58528;SDS011;44322;52.968;5.816;2024-03-17T12:54:26;11.13;;;8.57;;
58528;SDS011;44322;52.968;5.816;2024-03-17T12:57:02;8.50;;;7.60;;
58528;SDS011;44322;52.968;5.816;2024-03-17T13:02:41;9.70;;;7.88;;
58528;SDS011;44322;52.968;5.816;2024-03-17T13:05:10;10.90;;;8.82;;
58528;SDS011;44322;52.968;5.816;2024-03-17T13:07:38;11.20;;;8.43;;
58528;SDS011;44322;52.968;5.816;2024-03-17T13:10:04;10.13;;;9.05;;
58528;SDS011;44322;52.968;5.816;2024-03-17T13:14:58;10.18;;;9.00;;
58528;SDS011;44322;52.968;5.816;2024-03-17T13:17:24;11.32;;;9.07;;
58528;SDS011;44322;52.968;5.816;2024-03-17T13:19:49;9.95;;;8.65;;
58528;SDS011;44322;52.968;5.816;2024-03-17T13:22:15;10.38;;;9.13;;
58528;SDS011;44322;52.968;5.816;2024-03-17T13:24:40;10.57;;;9.48;;
58528;SDS011;44322;52.968;5.816;2024-03-17T13:27:06;10.48;;;8.85;;
58528;SDS011;44322;52.968;5.816;2024-03-17T13:29:34;10.07;;;9.07;;
58528;SDS011;44322;52.968;5.816;2024-03-17T13:32:03;10.45;;;9.38;;
58528;SDS011;44322;52.968;5.816;2024-03-17T13:34:29;10.40;;;8.90;;
58528;SDS011;44322;52.968;5.816;2024-03-17T13:36:55;10.23;;;9.20;;
58528;SDS011;44322;52.968;5.816;2024-03-17T13:39:21;11.07;;;8.27;;
58528;SDS011;44322;52.968;5.816;2024-03-17T13:41:47;12.02;;;8.70;;
58528;SDS011;44322;52.968;5.816;2024-03-17T13:44:14;9.57;;;8.57;;
58528;SDS011;44322;52.968;5.816;2024-03-17T13:46:40;9.80;;;8.63;;
58528;SDS011;44322;52.968;5.816;2024-03-17T13:49:09;10.80;;;9.68;;
58528;SDS011;44322;52.968;5.816;2024-03-17T13:51:36;9.65;;;8.65;;
58528;SDS011;44322;52.968;5.816;2024-03-17T13:54:01;11.10;;;8.95;;
58528;SDS011;44322;52.968;5.816;2024-03-17T13:56:27;10.18;;;8.95;;
58528;SDS011;44322;52.968;5.816;2024-03-17T13:58:53;12.25;;;9.05;;
58528;SDS011;44322;52.968;5.816;2024-03-17T14:01:19;11.55;;;9.07;;
58528;SDS011;44322;52.968;5.816;2024-03-17T14:03:45;10.65;;;8.73;;
58528;SDS011;44322;52.968;5.816;2024-03-17T14:06:11;9.70;;;8.70;;
58528;SDS011;44322;52.968;5.816;2024-03-17T14:08:37;10.25;;;8.60;;
58528;SDS011;44322;52.968;5.816;2024-03-17T14:11:02;9.60;;;8.50;;
58528;SDS011;44322;52.968;5.816;2024-03-17T14:13:29;12.13;;;8.80;;
58528;SDS011;44322;52.968;5.816;2024-03-17T14:15:58;9.73;;;8.63;;
58528;SDS011;44322;52.968;5.816;2024-03-17T14:18:24;10.07;;;8.02;;
58528;SDS011;44322;52.968;5.816;2024-03-17T14:20:49;10.07;;;8.30;;
58528;SDS011;44322;52.968;5.816;2024-03-17T14:23:15;10.35;;;8.70;;
58528;SDS011;44322;52.968;5.816;2024-03-17T14:25:42;8.98;;;8.02;;
58528;SDS011;44322;52.968;5.816;2024-03-17T14:28:07;10.63;;;8.43;;
58528;SDS011;44322;52.968;5.816;2024-03-17T14:30:33;8.63;;;7.72;;
58528;SDS011;44322;52.968;5.816;2024-03-17T14:32:58;8.80;;;7.88;;
58528;SDS011;44322;52.968;5.816;2024-03-17T14:35:24;10.75;;;7.97;;
58528;SDS011;44322;52.968;5.816;2024-03-17T14:37:52;10.45;;;7.57;;
58528;SDS011;44322;52.968;5.816;2024-03-17T14:40:18;8.93;;;7.65;;
58528;SDS011;44322;52.968;5.816;2024-03-17T14:42:49;9.57;;;8.05;;
58528;SDS011;44322;52.968;5.816;2024-03-17T14:45:16;9.57;;;8.18;;
58528;SDS011;44322;52.968;5.816;2024-03-17T14:47:42;9.20;;;8.05;;
58528;SDS011;44322;52.968;5.816;2024-03-17T14:50:09;8.70;;;7.80;;
58528;SDS011;44322;52.968;5.816;2024-03-17T14:52:39;9.45;;;8.48;;
58528;SDS011;44322;52.968;5.816;2024-03-17T14:55:07;11.07;;;8.57;;
58528;SDS011;44322;52.968;5.816;2024-03-17T14:57:35;11.38;;;7.70;;
58528;SDS011;44322;52.968;5.816;2024-03-17T15:00:02;9.15;;;8.18;;
58528;SDS011;44322;52.968;5.816;2024-03-17T15:02:28;8.50;;;7.57;;
58528;SDS011;44322;52.968;5.816;2024-03-17T15:04:54;10.20;;;7.47;;
58528;SDS011;44322;52.968;5.816;2024-03-17T15:07:20;10.07;;;7.85;;
58528;SDS011;44322;52.968;5.816;2024-03-17T15:09:45;7.85;;;7.00;;
58528;SDS011;44322;52.968;5.816;2024-03-17T15:12:13;9.45;;;7.28;;
58528;SDS011;44322;52.968;5.816;2024-03-17T15:14:38;9.48;;;7.82;;
58528;SDS011;44322;52.968;5.816;2024-03-17T15:17:04;8.75;;;7.85;;
58528;SDS011;44322;52.968;5.816;2024-03-17T15:19:31;8.35;;;7.55;;
58528;SDS011;44322;52.968;5.816;2024-03-17T15:21:57;7.88;;;7.07;;
58528;SDS011;44322;52.968;5.816;2024-03-17T15:24:23;8.15;;;7.35;;